Time;durP1;ratioP1;P1;durP2;ratioP2;P2;SDS_P1;SDS_P2;PMS_P1;PMS_P2;Temp;Humidity;BMP_temperature;BMP_pressure;BME280_temperature;BME280_humidity;BME280_pressure;Samples;Min_cycle;Max_cycle;Signal;HPM_P1;HPM_P2
2023/06/30 00:00:12;;;;;;;;;0.33;0.33;;;;;;;;5097637;28;28380;-83
2023/06/30 00:02:37;;;;;;;;;1.00;1.00;;;;;;;;5098875;27;28319;-83
2023/06/30 00:05:02;;;;;;;;;1.00;1.00;;;;;;;;5097609;28;28340;-83
2023/06/30 00:07:28;;;;;;;;;0.67;0.67;;;;;;;;5098777;27;28265;-83
2023/06/30 00:09:53;;;;;;;;;2.00;1.00;;;;;;;;5098719;27;28319;-83
2023/06/30 00:12:18;;;;;;;;;1.00;1.00;;;;;;;;5098741;27;28293;-83
2023/06/30 00:14:43;;;;;;;;;2.00;2.00;;;;;;;;5097731;28;28344;-83
2023/06/30 00:17:08;;;;;;;;;1.00;1.00;;;;;;;;5098717;27;28304;-83
2023/06/30 00:19:35;;;;;;;;;0.00;0.00;;;;;;;;5098947;27;28431;-83
2023/06/30 00:22:01;;;;;;;;;1.33;1.33;;;;;;;;5096887;28;28307;-83
2023/06/30 00:24:26;;;;;;;;;1.00;1.00;;;;;;;;5098652;27;28391;-83
2023/06/30 00:26:52;;;;;;;;;1.00;1.00;;;;;;;;5098576;27;28399;-83
2023/06/30 00:29:17;;;;;;;;;1.00;1.00;;;;;;;;5098678;28;29239;-83
2023/06/30 00:31:42;;;;;;;;;1.33;1.33;;;;;;;;5098620;27;28419;-83
2023/06/30 00:34:07;;;;;;;;;1.67;0.67;;;;;;;;5098621;27;28372;-83
2023/06/30 00:36:33;;;;;;;;;0.00;0.00;;;;;;;;5098578;27;28380;-83
2023/06/30 00:38:58;;;;;;;;;1.00;1.00;;;;;;;;5086224;27;28387;-83
2023/06/30 00:41:24;;;;;;;;;0.00;0.00;;;;;;;;5094657;28;28471;-83
2023/06/30 00:43:49;;;;;;;;;1.00;1.00;;;;;;;;5098507;27;28349;-83
2023/06/30 00:46:15;;;;;;;;;0.67;0.67;;;;;;;;5098351;27;28348;-83
2023/06/30 00:48:41;;;;;;;;;1.00;1.00;;;;;;;;5098135;27;28403;-83
2023/06/30 00:51:06;;;;;;;;;0.67;0.67;;;;;;;;5098188;27;28300;-83
2023/06/30 00:53:31;;;;;;;;;1.33;1.33;;;;;;;;5098043;27;28530;-83
2023/06/30 00:55:57;;;;;;;;;1.00;1.00;;;;;;;;5098163;28;28225;-83
2023/06/30 00:58:22;;;;;;;;;5.00;5.00;;;;;;;;5097881;27;29296;-83
2023/06/30 01:00:48;;;;;;;;;3.67;3.67;;;;;;;;5098067;27;28294;-83
2023/06/30 01:03:25;;;;;;;;;5.33;5.33;;;;;;;;5098186;27;28300;-83
2023/06/30 01:06:02;;;;;;;;;6.00;6.00;;;;;;;;5097555;27;28332;-83
2023/06/30 01:08:31;;;;;;;;;6.67;6.67;;;;;;;;5097384;28;29489;-83
2023/06/30 01:10:57;;;;;;;;;11.00;11.00;;;;;;;;5097892;28;28249;-83
2023/06/30 01:13:22;;;;;;;;;11.33;10.33;;;;;;;;5096485;28;28254;-83
2023/06/30 01:15:48;;;;;;;;;12.67;12.67;;;;;;;;5096690;28;28404;-83
2023/06/30 01:18:15;;;;;;;;;11.00;10.00;;;;;;;;5097536;28;28253;-83
2023/06/30 01:20:41;;;;;;;;;17.33;16.00;;;;;;;;5096500;28;28416;-83
2023/06/30 01:23:20;;;;;;;;;16.00;16.00;;;;;;;;5097383;27;28456;-83
2023/06/30 01:25:47;;;;;;;;;24.75;21.75;;;;;;;;5097691;27;28406;-83
2023/06/30 01:28:13;;;;;;;;;19.25;19.25;;;;;;;;5097337;27;28325;-83
2023/06/30 01:30:38;;;;;;;;;16.67;15.67;;;;;;;;5096260;27;28835;-83
2023/06/30 01:33:03;;;;;;;;;18.75;18.75;;;;;;;;5097478;27;28230;-83
2023/06/30 01:35:29;;;;;;;;;14.00;12.00;;;;;;;;5097856;27;28289;-83
2023/06/30 01:37:55;;;;;;;;;11.00;11.00;;;;;;;;5097223;27;28328;-83
2023/06/30 01:40:20;;;;;;;;;8.00;8.00;;;;;;;;5097097;27;28420;-83
2023/06/30 01:42:47;;;;;;;;;6.33;6.33;;;;;;;;5096304;28;28365;-83
2023/06/30 01:45:13;;;;;;;;;7.33;7.33;;;;;;;;5097669;27;28580;-83
2023/06/30 01:47:39;;;;;;;;;2.00;2.00;;;;;;;;5097304;27;28524;-83
2023/06/30 01:50:05;;;;;;;;;5.67;3.00;;;;;;;;5097358;27;28398;-83
2023/06/30 01:52:31;;;;;;;;;1.33;1.00;;;;;;;;5097139;28;28392;-83
2023/06/30 01:54:56;;;;;;;;;1.67;1.67;;;;;;;;5097498;28;28312;-83
2023/06/30 01:57:21;;;;;;;;;1.33;1.33;;;;;;;;5097175;28;28230;-83
2023/06/30 01:59:46;;;;;;;;;1.33;1.33;;;;;;;;5097304;28;28247;-83
2023/06/30 02:02:12;;;;;;;;;1.67;1.67;;;;;;;;5097325;27;28301;-82
2023/06/30 02:04:37;;;;;;;;;2.00;2.00;;;;;;;;5097394;28;28559;-83
2023/06/30 02:07:02;;;;;;;;;2.33;2.33;;;;;;;;5095402;27;28493;-83
2023/06/30 02:09:28;;;;;;;;;2.00;2.00;;;;;;;;5097020;27;28317;-83
2023/06/30 02:11:53;;;;;;;;;2.00;2.00;;;;;;;;5097273;27;28288;-83
2023/06/30 02:14:18;;;;;;;;;3.00;3.00;;;;;;;;5097403;27;28308;-83
2023/06/30 02:16:43;;;;;;;;;5.00;5.00;;;;;;;;5097558;27;28246;-83
2023/06/30 02:19:09;;;;;;;;;3.33;3.33;;;;;;;;5100822;27;28424;-83
2023/06/30 02:21:34;;;;;;;;;5.00;5.00;;;;;;;;5100768;27;28238;-83
2023/06/30 02:23:59;;;;;;;;;3.67;3.67;;;;;;;;5099079;28;28659;-83
2023/06/30 02:26:25;;;;;;;;;8.00;8.00;;;;;;;;5098946;28;28474;-83
2023/06/30 02:28:50;;;;;;;;;5.00;5.00;;;;;;;;5099184;28;28742;-83
2023/06/30 02:31:15;;;;;;;;;6.00;6.00;;;;;;;;5100668;27;28699;-83
2023/06/30 02:33:41;;;;;;;;;2.33;2.33;;;;;;;;5100624;27;28271;-83
2023/06/30 02:36:06;;;;;;;;;6.00;6.00;;;;;;;;5100377;27;28426;-83
2023/06/30 02:38:31;;;;;;;;;4.00;4.00;;;;;;;;5099858;27;28506;-83
2023/06/30 02:40:56;;;;;;;;;4.67;4.67;;;;;;;;5098803;28;28479;-83
2023/06/30 02:43:22;;;;;;;;;5.67;5.67;;;;;;;;5099127;28;28733;-83
2023/06/30 02:45:47;;;;;;;;;4.67;4.33;;;;;;;;5100302;28;28420;-83
2023/06/30 02:48:12;;;;;;;;;5.00;5.00;;;;;;;;5100102;27;28468;-83
2023/06/30 02:50:37;;;;;;;;;6.67;6.67;;;;;;;;5098812;27;28514;-83
2023/06/30 02:53:03;;;;;;;;;5.33;5.33;;;;;;;;5099933;27;28390;-82
2023/06/30 02:55:28;;;;;;;;;5.00;5.00;;;;;;;;5099924;27;28493;-83
2023/06/30 02:57:54;;;;;;;;;5.00;5.00;;;;;;;;5099858;28;28337;-83
2023/06/30 03:00:19;;;;;;;;;6.67;6.67;;;;;;;;5100070;27;28367;-83
2023/06/30 03:02:44;;;;;;;;;6.67;6.67;;;;;;;;5100076;27;28403;-83
2023/06/30 03:05:10;;;;;;;;;8.33;8.33;;;;;;;;5098650;28;31752;-83
2023/06/30 03:07:35;;;;;;;;;8.67;8.67;;;;;;;;5099426;27;28397;-83
2023/06/30 03:10:00;;;;;;;;;9.67;8.67;;;;;;;;5099780;28;28470;-83
2023/06/30 03:12:26;;;;;;;;;15.00;15.00;;;;;;;;5099797;27;28295;-82
2023/06/30 03:14:51;;;;;;;;;13.50;13.50;;;;;;;;5099756;27;28317;-83
2023/06/30 03:17:16;;;;;;;;;16.50;15.50;;;;;;;;5099455;28;28246;-83
2023/06/30 03:19:41;;;;;;;;;17.00;17.00;;;;;;;;5099892;27;28229;-83
2023/06/30 03:22:07;;;;;;;;;14.33;13.67;;;;;;;;5099282;27;28226;-83
2023/06/30 03:24:32;;;;;;;;;12.75;12.50;;;;;;;;5099622;27;28408;-83
2023/06/30 03:26:57;;;;;;;;;11.33;10.67;;;;;;;;5099423;27;28459;-83
2023/06/30 03:29:22;;;;;;;;;11.00;11.00;;;;;;;;5099492;27;28296;-83
2023/06/30 03:31:47;;;;;;;;;11.25;11.25;;;;;;;;5099458;27;28667;-83
2023/06/30 03:34:13;;;;;;;;;10.33;10.33;;;;;;;;5099584;27;29563;-83
2023/06/30 03:36:38;;;;;;;;;11.00;11.00;;;;;;;;5099157;28;28291;-83
2023/06/30 03:39:05;;;;;;;;;14.33;14.00;;;;;;;;5097594;28;28357;-83
2023/06/30 03:41:30;;;;;;;;;13.33;11.67;;;;;;;;5099242;27;28304;-83
2023/06/30 03:43:55;;;;;;;;;12.00;12.00;;;;;;;;5099259;27;28399;-82
2023/06/30 03:46:20;;;;;;;;;10.00;10.00;;;;;;;;5099025;27;28305;-83
2023/06/30 03:48:45;;;;;;;;;7.00;7.00;;;;;;;;5099490;27;28446;-82
2023/06/30 03:51:11;;;;;;;;;9.00;9.00;;;;;;;;5099156;27;28675;-83
2023/06/30 03:53:36;;;;;;;;;7.00;7.00;;;;;;;;5098762;27;28401;-83
2023/06/30 03:56:01;;;;;;;;;7.00;7.00;;;;;;;;5098924;27;28680;-83
2023/06/30 03:58:28;;;;;;;;;5.33;5.33;;;;;;;;5097766;28;28447;-82
2023/06/30 04:00:54;;;;;;;;;5.67;5.67;;;;;;;;5099075;27;28437;-83
2023/06/30 04:03:20;;;;;;;;;5.00;5.00;;;;;;;;5098910;28;28341;-83
2023/06/30 04:05:45;;;;;;;;;7.33;7.33;;;;;;;;5098711;28;28530;-83
2023/06/30 04:08:10;;;;;;;;;6.33;6.33;;;;;;;;5097427;28;28386;-83
2023/06/30 04:10:35;;;;;;;;;2.33;2.33;;;;;;;;5084952;27;28390;-82
2023/06/30 04:13:00;;;;;;;;;6.00;6.00;;;;;;;;5099152;28;28716;-82
2023/06/30 04:15:25;;;;;;;;;7.00;7.00;;;;;;;;5098624;28;28395;-83
2023/06/30 04:17:51;;;;;;;;;6.00;6.00;;;;;;;;5099067;28;28296;-83
2023/06/30 04:20:16;;;;;;;;;7.00;7.00;;;;;;;;5098845;27;28336;-83
2023/06/30 04:22:41;;;;;;;;;9.67;9.00;;;;;;;;5098578;27;28340;-83
2023/06/30 04:25:07;;;;;;;;;9.33;9.33;;;;;;;;5098366;27;28289;-82
2023/06/30 04:27:32;;;;;;;;;12.33;12.33;;;;;;;;5098814;28;28411;-83
2023/06/30 04:29:57;;;;;;;;;10.33;10.33;;;;;;;;5097309;28;28620;-83
2023/06/30 04:32:22;;;;;;;;;4.67;4.67;;;;;;;;5098705;28;28263;-82
2023/06/30 04:34:48;;;;;;;;;7.00;7.00;;;;;;;;5098386;28;28241;-82
2023/06/30 04:37:14;;;;;;;;;5.67;5.67;;;;;;;;5087627;28;28300;-83
2023/06/30 04:39:40;;;;;;;;;2.33;2.33;;;;;;;;5093716;28;28250;-83
2023/06/30 04:42:05;;;;;;;;;8.33;8.33;;;;;;;;5098384;28;28296;-82
2023/06/30 04:44:30;;;;;;;;;6.67;6.67;;;;;;;;5095281;28;28332;-83
2023/06/30 04:46:56;;;;;;;;;4.67;4.67;;;;;;;;5087683;28;28305;-83
2023/06/30 04:49:22;;;;;;;;;7.67;7.67;;;;;;;;5117668;27;28395;-82
2023/06/30 04:51:47;;;;;;;;;9.00;9.00;;;;;;;;5087952;27;28326;-83
2023/06/30 04:54:12;;;;;;;;;9.00;9.00;;;;;;;;5094340;28;28366;-83
2023/06/30 04:56:37;;;;;;;;;11.00;11.00;;;;;;;;5096926;28;28481;-83
2023/06/30 04:59:03;;;;;;;;;10.00;10.00;;;;;;;;5098216;27;28475;-82
2023/06/30 05:01:28;;;;;;;;;7.67;7.67;;;;;;;;5098100;27;28519;-83
2023/06/30 05:03:54;;;;;;;;;10.33;10.33;;;;;;;;5098066;27;28470;-83
2023/06/30 05:06:19;;;;;;;;;8.00;8.00;;;;;;;;5098065;27;28502;-83
2023/06/30 05:08:44;;;;;;;;;7.00;7.00;;;;;;;;5097635;27;28442;-83
2023/06/30 05:11:09;;;;;;;;;10.33;10.33;;;;;;;;5097973;27;28432;-83
2023/06/30 05:13:35;;;;;;;;;11.00;9.67;;;;;;;;5097936;27;28517;-83
2023/06/30 05:16:00;;;;;;;;;8.00;8.00;;;;;;;;5098007;27;28337;-83
2023/06/30 05:18:25;;;;;;;;;9.00;9.00;;;;;;;;5097847;27;28340;-83
2023/06/30 05:20:51;;;;;;;;;15.67;13.33;;;;;;;;5097775;27;28528;-83
2023/06/30 05:23:16;;;;;;;;;12.00;10.67;;;;;;;;5097465;27;28345;-83
2023/06/30 05:25:42;;;;;;;;;11.00;11.00;;;;;;;;5097746;27;28488;-83
2023/06/30 05:28:07;;;;;;;;;16.67;14.33;;;;;;;;5097660;27;28504;-83
2023/06/30 05:30:32;;;;;;;;;10.33;10.33;;;;;;;;5097578;27;28303;-83
2023/06/30 05:32:58;;;;;;;;;12.67;12.67;;;;;;;;5097470;27;28230;-83
2023/06/30 05:35:23;;;;;;;;;16.00;14.00;;;;;;;;5096234;27;28231;-83
2023/06/30 05:37:48;;;;;;;;;11.33;11.33;;;;;;;;5097350;27;28307;-83
2023/06/30 05:40:13;;;;;;;;;17.33;13.67;;;;;;;;5097054;27;28378;-83
2023/06/30 05:42:38;;;;;;;;;12.67;12.67;;;;;;;;5097390;28;28250;-83
2023/06/30 05:45:04;;;;;;;;;12.33;12.33;;;;;;;;5097795;27;28230;-83
2023/06/30 05:47:29;;;;;;;;;13.67;11.33;;;;;;;;5096228;28;28627;-83
2023/06/30 05:49:54;;;;;;;;;12.67;12.67;;;;;;;;5097446;27;29250;-83
2023/06/30 05:52:24;;;;;;;;;10.67;10.67;;;;;;;;5098684;27;28324;-82
2023/06/30 05:54:50;;;;;;;;;13.33;12.33;;;;;;;;5101302;27;28313;-83
2023/06/30 05:57:15;;;;;;;;;9.00;9.00;;;;;;;;5100916;27;28396;-83
2023/06/30 05:59:40;;;;;;;;;6.33;6.33;;;;;;;;5100983;27;28474;-82
2023/06/30 06:02:05;;;;;;;;;7.00;7.00;;;;;;;;5099584;28;28445;-83
2023/06/30 06:04:31;;;;;;;;;8.67;8.67;;;;;;;;5101195;27;28419;-83
2023/06/30 06:06:56;;;;;;;;;8.00;8.00;;;;;;;;5100535;27;28450;-83
2023/06/30 06:09:21;;;;;;;;;6.00;6.00;;;;;;;;5100620;28;28360;-83
2023/06/30 06:11:46;;;;;;;;;7.00;5.33;;;;;;;;5100809;27;28325;-83
2023/06/30 06:14:11;;;;;;;;;4.67;4.67;;;;;;;;5100920;28;28254;-83
2023/06/30 06:16:37;;;;;;;;;5.33;3.00;;;;;;;;5100940;28;28275;-83
2023/06/30 06:19:02;;;;;;;;;4.67;4.67;;;;;;;;5100506;28;28434;-83
2023/06/30 06:21:27;;;;;;;;;6.33;6.33;;;;;;;;5100689;27;28305;-83
2023/06/30 06:23:53;;;;;;;;;6.33;6.33;;;;;;;;5133392;27;28585;-83
2023/06/30 06:26:18;;;;;;;;;14.33;14.33;;;;;;;;5100771;27;28537;-83
2023/06/30 06:28:44;;;;;;;;;8.67;8.67;;;;;;;;5100375;28;28464;-83
2023/06/30 06:31:09;;;;;;;;;8.67;8.67;;;;;;;;5100644;27;28312;-83
2023/06/30 06:33:35;;;;;;;;;6.33;6.33;;;;;;;;5100481;27;28573;-83
2023/06/30 06:36:00;;;;;;;;;8.33;7.33;;;;;;;;5100740;27;28546;-82
2023/06/30 06:38:25;;;;;;;;;7.33;5.67;;;;;;;;5099829;28;28316;-83
2023/06/30 06:40:51;;;;;;;;;3.00;3.00;;;;;;;;5100106;27;28311;-83
2023/06/30 06:43:16;;;;;;;;;7.00;7.00;;;;;;;;5099033;28;28308;-83
2023/06/30 06:45:41;;;;;;;;;7.00;4.67;;;;;;;;5100571;27;28301;-83
2023/06/30 06:48:25;;;;;;;;;5.67;5.67;;;;;;;;5100107;27;29590;-83
2023/06/30 06:50:52;;;;;;;;;5.00;5.00;;;;;;;;5100138;27;28368;-83
2023/06/30 06:53:21;;;;;;;;;3.33;3.33;;;;;;;;5099909;27;28372;-83
2023/06/30 06:55:49;;;;;;;;;2.00;2.00;;;;;;;;5100017;27;28490;-83
2023/06/30 06:58:15;;;;;;;;;3.00;3.00;;;;;;;;5100027;27;28309;-83
2023/06/30 07:00:41;;;;;;;;;1.00;1.00;;;;;;;;5099840;27;28462;-83
2023/06/30 07:03:07;;;;;;;;;3.00;3.00;;;;;;;;5099863;27;28280;-83
2023/06/30 07:05:32;;;;;;;;;2.67;2.67;;;;;;;;5099945;27;28402;-83
2023/06/30 07:07:57;;;;;;;;;4.00;4.00;;;;;;;;5099689;28;28437;-83
2023/06/30 07:10:23;;;;;;;;;2.67;2.67;;;;;;;;5098281;28;28427;-83
2023/06/30 07:12:48;;;;;;;;;10.33;10.33;;;;;;;;5132867;27;28343;-83
2023/06/30 07:15:13;;;;;;;;;3.67;3.67;;;;;;;;5098637;28;28574;-83
2023/06/30 07:17:38;;;;;;;;;3.00;3.00;;;;;;;;5098337;28;29724;-83
2023/06/30 07:20:04;;;;;;;;;3.00;3.00;;;;;;;;5099818;27;28398;-83
2023/06/30 07:22:29;;;;;;;;;2.00;2.00;;;;;;;;5132525;27;28541;-83
2023/06/30 07:24:55;;;;;;;;;2.00;2.00;;;;;;;;5098383;27;28312;-82
2023/06/30 07:27:20;;;;;;;;;3.33;3.00;;;;;;;;5099605;27;29667;-83
2023/06/30 07:29:49;;;;;;;;;2.67;2.67;;;;;;;;5099622;27;28439;-82
2023/06/30 07:32:14;;;;;;;;;2.00;2.00;;;;;;;;5098289;28;28344;-83
2023/06/30 07:34:39;;;;;;;;;1.67;1.67;;;;;;;;5098277;28;28258;-83
2023/06/30 07:37:05;;;;;;;;;2.33;2.33;;;;;;;;5099124;28;29030;-82
2023/06/30 07:39:30;;;;;;;;;2.00;2.00;;;;;;;;5098952;27;28630;-83
2023/06/30 07:41:55;;;;;;;;;2.00;2.00;;;;;;;;5098145;28;28375;-83
2023/06/30 07:44:20;;;;;;;;;2.00;2.00;;;;;;;;5099503;27;28579;-83
2023/06/30 07:46:46;;;;;;;;;1.67;1.67;;;;;;;;5099270;27;28429;-83
2023/06/30 07:49:11;;;;;;;;;1.00;1.00;;;;;;;;5099144;27;28555;-83
2023/06/30 07:51:36;;;;;;;;;2.00;2.00;;;;;;;;5099079;27;28434;-83
2023/06/30 07:54:01;;;;;;;;;2.67;2.67;;;;;;;;5099141;28;28234;-83
2023/06/30 07:56:27;;;;;;;;;2.00;2.00;;;;;;;;5099183;27;28218;-83
2023/06/30 07:58:52;;;;;;;;;2.33;2.33;;;;;;;;5099181;27;28649;-83
2023/06/30 08:01:17;;;;;;;;;2.00;2.00;;;;;;;;5099190;27;28602;-83
2023/06/30 08:03:42;;;;;;;;;2.33;2.33;;;;;;;;5099118;27;28444;-83
2023/06/30 08:06:07;;;;;;;;;3.00;3.00;;;;;;;;5098955;27;28341;-83
2023/06/30 08:08:33;;;;;;;;;2.33;2.33;;;;;;;;5098600;27;28420;-83
2023/06/30 08:10:58;;;;;;;;;3.00;3.00;;;;;;;;5098908;27;28568;-83
2023/06/30 08:13:24;;;;;;;;;1.00;1.00;;;;;;;;5099038;27;28529;-83
2023/06/30 08:15:49;;;;;;;;;2.00;2.00;;;;;;;;5097806;27;29386;-83
2023/06/30 08:18:15;;;;;;;;;2.00;2.00;;;;;;;;5098604;27;28509;-83
2023/06/30 08:20:40;;;;;;;;;2.00;2.00;;;;;;;;5097587;28;28408;-83
2023/06/30 08:23:05;;;;;;;;;2.00;2.00;;;;;;;;5097180;28;28338;-83
2023/06/30 08:25:30;;;;;;;;;2.00;2.00;;;;;;;;5098657;27;28501;-82
2023/06/30 08:27:55;;;;;;;;;1.00;1.00;;;;;;;;5098514;28;28430;-83
2023/06/30 08:30:21;;;;;;;;;3.00;2.00;;;;;;;;5098894;28;28412;-82
2023/06/30 08:32:46;;;;;;;;;1.00;1.00;;;;;;;;5098724;28;28514;-83
2023/06/30 08:35:11;;;;;;;;;1.00;1.00;;;;;;;;5085068;28;29489;-83
2023/06/30 08:37:37;;;;;;;;;2.67;2.00;;;;;;;;5098152;27;28369;-83
2023/06/30 08:40:03;;;;;;;;;1.00;1.00;;;;;;;;5098113;27;28300;-83
2023/06/30 08:42:30;;;;;;;;;1.00;1.00;;;;;;;;5098584;28;28250;-83
2023/06/30 08:44:56;;;;;;;;;2.00;2.00;;;;;;;;5098269;28;28654;-83
2023/06/30 08:47:24;;;;;;;;;2.00;2.00;;;;;;;;5098277;27;28285;-83
2023/06/30 08:49:49;;;;;;;;;2.00;2.00;;;;;;;;5098497;27;28337;-83
2023/06/30 08:52:15;;;;;;;;;1.00;1.00;;;;;;;;5098033;28;28376;-83
2023/06/30 08:54:40;;;;;;;;;1.67;1.00;;;;;;;;5096690;27;28661;-83
2023/06/30 08:57:06;;;;;;;;;1.00;1.00;;;;;;;;5096822;28;28412;-83
2023/06/30 08:59:31;;;;;;;;;0.00;0.00;;;;;;;;5098171;27;28530;-84
2023/06/30 09:01:57;;;;;;;;;1.00;1.00;;;;;;;;5098325;27;28333;-83
2023/06/30 09:04:23;;;;;;;;;1.00;1.00;;;;;;;;5097967;28;28320;-83
2023/06/30 09:06:48;;;;;;;;;0.00;0.00;;;;;;;;5096371;28;28594;-83
2023/06/30 09:09:21;;;;;;;;;1.00;1.00;;;;;;;;5097909;27;28445;-83
2023/06/30 09:11:47;;;;;;;;;1.00;1.00;;;;;;;;5098139;27;28368;-83
2023/06/30 09:14:13;;;;;;;;;0.67;0.67;;;;;;;;5097897;28;28367;-83
2023/06/30 09:16:38;;;;;;;;;1.33;1.33;;;;;;;;5098061;28;28301;-83
2023/06/30 09:19:04;;;;;;;;;2.33;2.33;;;;;;;;5097831;28;28392;-83
2023/06/30 09:21:29;;;;;;;;;1.00;1.00;;;;;;;;5096367;28;28373;-83
2023/06/30 09:23:54;;;;;;;;;1.67;1.67;;;;;;;;5097730;27;28348;-83
2023/06/30 09:26:19;;;;;;;;;1.00;1.00;;;;;;;;5096075;28;28415;-84
2023/06/30 09:28:45;;;;;;;;;1.00;1.00;;;;;;;;5097652;27;28416;-83
2023/06/30 09:31:10;;;;;;;;;1.00;1.00;;;;;;;;5098013;27;28244;-83
2023/06/30 09:33:36;;;;;;;;;1.00;1.00;;;;;;;;5097617;27;28348;-83
2023/06/30 09:36:03;;;;;;;;;1.00;1.00;;;;;;;;5097889;27;28304;-83
2023/06/30 09:38:29;;;;;;;;;2.00;2.00;;;;;;;;5097206;27;28435;-83
2023/06/30 09:40:55;;;;;;;;;1.00;1.00;;;;;;;;5097264;28;28400;-83
2023/06/30 09:43:21;;;;;;;;;2.67;2.67;;;;;;;;5097602;28;28496;-83
2023/06/30 09:45:52;;;;;;;;;3.67;3.67;;;;;;;;5097512;27;28394;-83
2023/06/30 09:48:18;;;;;;;;;4.67;2.67;;;;;;;;5097645;27;28342;-83
2023/06/30 09:50:43;;;;;;;;;1.00;1.00;;;;;;;;5097472;28;28526;-83
2023/06/30 09:53:08;;;;;;;;;2.00;2.00;;;;;;;;5097197;27;29441;-83
2023/06/30 09:55:45;;;;;;;;;3.00;3.00;;;;;;;;5097314;27;28374;-83
2023/06/30 09:58:11;;;;;;;;;2.67;2.67;;;;;;;;5097386;27;28334;-84
2023/06/30 10:00:36;;;;;;;;;3.00;3.00;;;;;;;;5097350;27;28420;-83
2023/06/30 10:03:05;;;;;;;;;1.00;1.00;;;;;;;;5097306;28;28938;-83
2023/06/30 10:05:31;;;;;;;;;2.00;2.00;;;;;;;;5097253;27;28384;-83
2023/06/30 10:07:57;;;;;;;;;1.00;1.00;;;;;;;;5095597;28;28403;-83
2023/06/30 10:10:23;;;;;;;;;5.00;3.00;;;;;;;;5097118;27;28573;-83
2023/06/30 10:12:51;;;;;;;;;2.00;1.33;;;;;;;;5097145;27;28480;-84
2023/06/30 10:15:16;;;;;;;;;1.00;1.00;;;;;;;;5095857;28;28679;-83
2023/06/30 10:17:43;;;;;;;;;1.00;1.00;;;;;;;;5097261;28;28593;-83
2023/06/30 10:20:08;;;;;;;;;2.33;2.33;;;;;;;;5095874;28;28380;-83
2023/06/30 10:22:34;;;;;;;;;1.67;1.67;;;;;;;;5096797;27;28400;-83
2023/06/30 10:24:59;;;;;;;;;3.00;3.00;;;;;;;;5095455;28;28340;-83
2023/06/30 10:27:25;;;;;;;;;4.00;3.33;;;;;;;;5097179;27;28250;-83
2023/06/30 10:29:50;;;;;;;;;3.00;3.00;;;;;;;;5095659;28;28328;-83
2023/06/30 10:32:20;;;;;;;;;2.33;2.33;;;;;;;;5097001;27;28532;-83
2023/06/30 10:34:46;;;;;;;;;2.33;2.33;;;;;;;;5096919;27;28562;-83
2023/06/30 10:37:11;;;;;;;;;3.00;3.00;;;;;;;;5096933;27;28494;-83
2023/06/30 10:39:37;;;;;;;;;1.00;1.00;;;;;;;;5098672;27;28484;-83
2023/06/30 10:42:04;;;;;;;;;2.00;2.00;;;;;;;;5099048;28;29757;-84
2023/06/30 10:44:36;;;;;;;;;1.00;1.00;;;;;;;;5100205;27;28338;-83
2023/06/30 10:47:02;;;;;;;;;2.00;2.00;;;;;;;;5100296;28;28336;-83
2023/06/30 10:49:31;;;;;;;;;1.00;1.00;;;;;;;;5100225;27;28399;-84
2023/06/30 10:52:00;;;;;;;;;1.00;1.00;;;;;;;;5099791;28;28308;-83
2023/06/30 10:54:37;;;;;;;;;1.00;1.00;;;;;;;;5100025;28;28521;-84
2023/06/30 10:57:07;;;;;;;;;2.00;2.00;;;;;;;;5100218;28;28647;-84
2023/06/30 10:59:56;;;;;;;;;1.00;1.00;;;;;;;;5087140;28;28538;-83
2023/06/30 11:02:22;;;;;;;;;1.00;1.00;;;;;;;;5092824;27;29646;-84
2023/06/30 11:04:49;;;;;;;;;1.00;1.00;;;;;;;;5099897;27;28347;-84
2023/06/30 11:07:22;;;;;;;;;1.00;1.00;;;;;;;;5098346;28;28366;-84
2023/06/30 11:09:48;;;;;;;;;2.00;2.00;;;;;;;;5098556;28;28452;-84
2023/06/30 11:12:19;;;;;;;;;1.00;1.00;;;;;;;;5099606;27;28452;-84
2023/06/30 11:14:57;;;;;;;;;4.67;2.00;;;;;;;;5099803;27;28482;-84
2023/06/30 11:17:26;;;;;;;;;1.00;1.00;;;;;;;;5099745;27;28454;-83
2023/06/30 11:20:18;;;;;;;;;2.00;2.00;;;;;;;;5098464;28;28271;-84
2023/06/30 11:23:00;;;;;;;;;1.00;1.00;;;;;;;;5098122;27;28383;-84
2023/06/30 11:25:26;;;;;;;;;1.00;1.00;;;;;;;;5099518;27;29610;-84
2023/06/30 11:27:51;;;;;;;;;0.00;0.00;;;;;;;;5099683;28;28501;-84
2023/06/30 11:30:19;;;;;;;;;1.00;1.00;;;;;;;;5099874;27;28392;-83
2023/06/30 11:32:45;;;;;;;;;0.33;0.33;;;;;;;;5099426;28;28417;-83
2023/06/30 11:35:11;;;;;;;;;0.00;0.00;;;;;;;;5099689;28;28401;-84
2023/06/30 11:37:36;;;;;;;;;1.00;0.00;;;;;;;;5097858;28;28439;-84
2023/06/30 11:40:03;;;;;;;;;1.00;1.00;;;;;;;;5097913;27;28380;-83
2023/06/30 11:42:28;;;;;;;;;0.33;0.33;;;;;;;;5099391;28;28601;-84
2023/06/30 11:44:53;;;;;;;;;0.00;0.00;;;;;;;;5099159;27;28410;-84
2023/06/30 11:47:19;;;;;;;;;1.00;1.00;;;;;;;;5099424;28;28375;-84
2023/06/30 11:49:45;;;;;;;;;0.00;0.00;;;;;;;;5099336;27;28387;-84
2023/06/30 11:52:10;;;;;;;;;0.00;0.00;;;;;;;;5098812;28;28473;-84
2023/06/30 11:54:36;;;;;;;;;2.00;0.00;;;;;;;;5097825;28;28491;-84
2023/06/30 11:57:02;;;;;;;;;0.00;0.00;;;;;;;;5097883;28;28487;-84
2023/06/30 11:59:28;;;;;;;;;1.00;1.00;;;;;;;;5097853;28;28406;-83
2023/06/30 12:01:53;;;;;;;;;1.00;1.00;;;;;;;;5099173;27;28332;-84
2023/06/30 12:04:18;;;;;;;;;1.00;1.00;;;;;;;;5098954;27;28337;-84
2023/06/30 12:06:47;;;;;;;;;1.00;1.00;;;;;;;;5097416;28;28427;-83
2023/06/30 12:09:12;;;;;;;;;0.33;0.33;;;;;;;;5098843;28;28420;-83
2023/06/30 12:11:41;;;;;;;;;2.00;2.00;;;;;;;;5098824;28;28316;-83
2023/06/30 12:14:15;;;;;;;;;1.00;1.00;;;;;;;;5097414;28;28655;-83
2023/06/30 12:16:44;;;;;;;;;1.33;1.33;;;;;;;;5098840;28;28435;-83
2023/06/30 12:19:09;;;;;;;;;1.00;1.00;;;;;;;;5086561;28;28311;-83
2023/06/30 12:21:35;;;;;;;;;2.00;2.00;;;;;;;;5096923;28;28344;-83
2023/06/30 12:24:00;;;;;;;;;0.33;0.33;;;;;;;;5098686;27;28399;-83
2023/06/30 12:26:26;;;;;;;;;2.00;2.00;;;;;;;;5098588;28;28238;-84
2023/06/30 12:28:51;;;;;;;;;1.00;1.00;;;;;;;;5097451;28;28316;-83
2023/06/30 12:31:16;;;;;;;;;0.33;0.33;;;;;;;;5098603;28;28350;-83
2023/06/30 12:33:51;;;;;;;;;1.00;1.00;;;;;;;;5098730;28;28538;-83
2023/06/30 12:36:19;;;;;;;;;1.00;1.00;;;;;;;;5096949;28;28389;-83
2023/06/30 12:38:45;;;;;;;;;0.67;0.67;;;;;;;;5098339;27;28333;-84
2023/06/30 12:41:10;;;;;;;;;1.00;1.00;;;;;;;;5098301;27;28312;-84
2023/06/30 12:43:35;;;;;;;;;0.67;0.67;;;;;;;;5097196;28;28349;-83
2023/06/30 12:46:02;;;;;;;;;0.33;0.33;;;;;;;;5098302;27;28339;-84
2023/06/30 12:48:27;;;;;;;;;1.00;1.00;;;;;;;;5098515;27;28506;-83
2023/06/30 12:50:56;;;;;;;;;1.00;1.00;;;;;;;;5096910;28;29881;-83
2023/06/30 12:53:21;;;;;;;;;1.00;1.00;;;;;;;;5098031;27;28383;-83
2023/06/30 12:55:46;;;;;;;;;0.00;0.00;;;;;;;;5098201;27;28560;-83
2023/06/30 12:58:11;;;;;;;;;0.00;0.00;;;;;;;;5098269;27;28230;-83
2023/06/30 13:00:37;;;;;;;;;0.33;0.33;;;;;;;;5097444;28;29063;-84
2023/06/30 13:03:02;;;;;;;;;0.33;0.33;;;;;;;;5098285;28;28333;-83
2023/06/30 13:05:27;;;;;;;;;0.00;0.00;;;;;;;;5098010;28;28234;-84
2023/06/30 13:07:52;;;;;;;;;0.00;0.00;;;;;;;;5098073;28;28380;-83
2023/06/30 13:10:17;;;;;;;;;0.00;0.00;;;;;;;;5097788;28;28439;-83
2023/06/30 13:12:43;;;;;;;;;1.00;1.00;;;;;;;;5098104;28;28317;-84
2023/06/30 13:15:08;;;;;;;;;0.67;0.67;;;;;;;;5096676;27;28450;-84
2023/06/30 13:17:33;;;;;;;;;0.00;0.00;;;;;;;;5098111;28;28517;-83
2023/06/30 13:19:59;;;;;;;;;0.00;0.00;;;;;;;;5097926;27;28313;-83
2023/06/30 13:22:24;;;;;;;;;1.00;1.00;;;;;;;;5096261;28;28641;-83
2023/06/30 13:24:49;;;;;;;;;0.00;0.00;;;;;;;;5097720;27;28333;-83
2023/06/30 13:27:14;;;;;;;;;1.00;1.00;;;;;;;;5098132;27;28394;-83
2023/06/30 13:29:44;;;;;;;;;0.67;0.67;;;;;;;;5097622;28;28434;-83
2023/06/30 13:32:09;;;;;;;;;1.00;1.00;;;;;;;;5098048;27;28325;-84
2023/06/30 13:34:34;;;;;;;;;1.00;1.00;;;;;;;;5097685;27;28254;-83
2023/06/30 13:37:00;;;;;;;;;0.00;0.00;;;;;;;;5097669;28;28297;-83
2023/06/30 13:39:25;;;;;;;;;0.33;0.33;;;;;;;;5097256;27;28600;-83
2023/06/30 13:41:50;;;;;;;;;0.67;0.00;;;;;;;;5097607;28;28355;-83
2023/06/30 13:44:16;;;;;;;;;1.00;0.00;;;;;;;;5097627;27;28562;-83
2023/06/30 13:46:41;;;;;;;;;0.00;0.00;;;;;;;;5096491;28;28562;-83
2023/06/30 13:49:06;;;;;;;;;0.00;0.00;;;;;;;;5096037;27;29669;-83
2023/06/30 13:51:31;;;;;;;;;0.33;0.00;;;;;;;;5096003;28;28875;-83
2023/06/30 13:53:56;;;;;;;;;0.00;0.00;;;;;;;;5096051;28;28426;-83
2023/06/30 13:56:23;;;;;;;;;0.33;0.33;;;;;;;;5097671;28;28464;-83
2023/06/30 13:58:48;;;;;;;;;0.00;0.00;;;;;;;;5097298;28;28579;-83
2023/06/30 14:01:13;;;;;;;;;3.00;1.00;;;;;;;;5097567;27;28326;-83
2023/06/30 14:03:40;;;;;;;;;3.33;1.00;;;;;;;;5096093;28;28435;-83
2023/06/30 14:06:05;;;;;;;;;0.33;0.33;;;;;;;;5097242;28;28561;-83
2023/06/30 14:08:30;;;;;;;;;0.00;0.00;;;;;;;;5097008;27;28343;-83
2023/06/30 14:10:56;;;;;;;;;1.00;1.00;;;;;;;;5097184;28;28360;-83
2023/06/30 14:13:21;;;;;;;;;0.00;0.00;;;;;;;;5099006;28;28381;-83
2023/06/30 14:15:46;;;;;;;;;0.00;0.00;;;;;;;;5099655;28;28368;-83
2023/06/30 14:18:11;;;;;;;;;0.00;0.00;;;;;;;;5100808;28;28329;-83
2023/06/30 14:20:36;;;;;;;;;0.00;0.00;;;;;;;;5100691;27;28415;-84
2023/06/30 14:23:02;;;;;;;;;0.00;0.00;;;;;;;;5100583;27;28368;-83
2023/06/30 14:25:27;;;;;;;;;0.00;0.00;;;;;;;;5100550;27;28653;-83
2023/06/30 14:27:55;;;;;;;;;2.00;1.00;;;;;;;;5100671;27;28365;-83
2023/06/30 14:30:20;;;;;;;;;0.00;0.00;;;;;;;;5100457;27;28298;-83